createdAt,value
2022-11-21T00:02:38.021Z,28.88
2022-11-21T00:07:40.667Z,31.90
2022-11-21T00:12:43.828Z,28.00
2022-11-21T00:17:46.390Z,29.67
2022-11-21T00:22:49.900Z,29.65
2022-11-21T00:27:53.767Z,34.17
2022-11-21T00:32:58.541Z,33.08
2022-11-21T00:38:01.097Z,26.40
2022-11-21T00:43:03.650Z,26.33
2022-11-21T00:48:06.636Z,25.20
2022-11-21T00:53:09.207Z,22.90
2022-11-21T00:58:11.793Z,24.98
2022-11-21T01:03:14.397Z,27.02
2022-11-21T01:08:17.035Z,26.90
2022-11-21T01:13:20.136Z,25.45
2022-11-21T01:18:22.681Z,28.02
2022-11-21T01:23:25.247Z,27.67
2022-11-21T01:28:27.783Z,24.95
2022-11-21T01:33:30.654Z,27.53
2022-11-21T01:38:34.124Z,25.13
2022-11-21T01:43:37.389Z,28.47
2022-11-21T01:48:45.804Z,27.03
2022-11-21T01:54:11.949Z,27.10
2022-11-21T01:59:21.807Z,28.73
2022-11-21T02:04:28.860Z,27.23
2022-11-21T02:09:34.595Z,28.97
2022-11-21T02:14:38.778Z,27.47
2022-11-21T02:20:03.663Z,29.57
2022-11-21T02:25:13.087Z,26.63
2022-11-21T02:30:16.484Z,30.17
2022-11-21T02:35:19.475Z,31.83
2022-11-21T02:40:26.471Z,35.37
2022-11-21T02:45:37.724Z,32.27
2022-11-21T02:50:42.117Z,31.98
2022-11-21T02:55:45.492Z,35.73
2022-11-21T03:00:48.280Z,35.28
2022-11-21T03:05:51.076Z,36.83
2022-11-21T03:10:53.654Z,34.80
2022-11-21T03:15:56.379Z,37.20
2022-11-21T03:20:59.192Z,34.53
2022-11-21T03:26:01.775Z,30.50
2022-11-21T03:31:04.318Z,31.93
2022-11-21T03:36:07.212Z,38.93
2022-11-21T03:41:29.907Z,39.80
2022-11-21T03:46:35.800Z,31.10
2022-11-21T03:51:39.114Z,34.77
2022-11-21T03:56:41.657Z,34.70
2022-11-21T04:01:44.300Z,37.53
2022-11-21T04:06:46.928Z,30.13
2022-11-21T04:11:49.435Z,28.83
2022-11-21T04:16:52.037Z,27.83
2022-11-21T04:21:54.662Z,30.27
2022-11-21T04:26:57.226Z,34.27
2022-11-21T04:31:59.764Z,28.90
2022-11-21T04:37:05.264Z,28.60
2022-11-21T04:42:10.156Z,28.47
2022-11-21T04:47:12.701Z,30.73
2022-11-21T04:52:15.380Z,27.83
2022-11-21T04:57:17.895Z,27.83
2022-11-21T05:02:20.654Z,30.17
2022-11-21T05:07:23.417Z,28.93
2022-11-21T05:12:44.793Z,26.87
2022-11-21T05:17:47.871Z,23.42
2022-11-21T05:22:53.667Z,26.90
2022-11-21T05:27:57.712Z,26.50
2022-11-21T05:33:00.318Z,22.83
2022-11-21T05:38:03.983Z,24.73
2022-11-21T05:43:25.848Z,22.87
2022-11-21T05:48:28.320Z,21.15
2022-11-21T05:53:31.006Z,17.27
2022-11-21T05:58:34.317Z,23.50
2022-11-21T06:03:40.166Z,19.93
2022-11-21T06:08:45.761Z,19.10
2022-11-21T06:13:48.362Z,11.77
2022-11-21T06:18:56.807Z,14.27
2022-11-21T06:24:01.148Z,17.10
2022-11-21T06:29:03.683Z,16.53
2022-11-21T06:34:06.523Z,17.90
2022-11-21T06:39:09.079Z,19.60
2022-11-21T06:44:12.255Z,17.00
2022-11-21T06:49:14.799Z,18.00
2022-11-21T06:54:17.559Z,17.33
2022-11-21T06:59:20.047Z,17.93
2022-11-21T07:04:22.772Z,16.10
2022-11-21T07:09:33.276Z,21.63
2022-11-21T07:14:36.596Z,20.40
2022-11-21T07:19:41.010Z,20.57
2022-11-21T07:24:43.928Z,21.93
2022-11-21T07:29:46.466Z,21.63
2022-11-21T07:34:49.730Z,22.73
2022-11-21T07:39:52.436Z,15.70
2022-11-21T07:44:55.003Z,19.63
2022-11-21T07:49:58.266Z,22.60
2022-11-21T07:55:02.739Z,22.13
2022-11-21T08:00:06.351Z,23.40
2022-11-21T08:05:09.163Z,21.23
2022-11-21T08:10:11.853Z,22.70
2022-11-21T08:15:15.738Z,22.90
2022-11-21T08:20:18.250Z,26.73
2022-11-21T08:25:20.830Z,28.57
2022-11-21T08:30:23.675Z,26.60
2022-11-21T08:35:27.494Z,24.37
2022-11-21T08:40:31.831Z,26.47
2022-11-21T08:45:36.397Z,28.73
2022-11-21T08:50:39.247Z,29.03
2022-11-21T08:55:41.755Z,24.10
2022-11-21T09:00:44.386Z,24.37
2022-11-21T09:05:47.559Z,26.23
2022-11-21T09:10:50.426Z,26.50
2022-11-21T09:16:13.396Z,29.20
2022-11-21T09:21:20.450Z,27.23
2022-11-21T09:26:23.010Z,22.42
2022-11-21T09:31:25.561Z,25.65
2022-11-21T09:36:28.970Z,22.77
2022-11-21T09:41:53.866Z,24.73
2022-11-21T09:47:12.888Z,25.30
2022-11-21T09:52:21.425Z,30.02
2022-11-21T09:57:28.468Z,23.80
2022-11-21T10:02:34.589Z,29.38
2022-11-21T10:07:37.641Z,31.58
2022-11-21T10:12:45.890Z,27.20
2022-11-21T10:18:09.866Z,30.30
2022-11-21T10:23:45.657Z,25.43
2022-11-21T10:28:59.466Z,22.63
2022-11-21T10:34:04.157Z,25.00
2022-11-21T10:39:19.194Z,27.77
2022-11-21T10:44:49.593Z,24.63
2022-11-21T10:49:52.199Z,25.73
2022-11-21T10:55:10.194Z,25.43
2022-11-21T11:00:12.752Z,28.77
2022-11-21T11:05:22.841Z,29.47
2022-11-21T11:10:28.060Z,28.73
2022-11-21T11:15:31.044Z,29.63
2022-11-21T11:20:35.362Z,27.97
2022-11-21T11:25:37.879Z,25.70
2022-11-21T11:30:40.942Z,24.77
2022-11-21T11:35:44.020Z,26.10
2022-11-21T11:40:47.706Z,20.97
2022-11-21T11:46:30.651Z,26.30
2022-11-21T11:51:44.865Z,25.50
2022-11-21T11:56:48.678Z,28.87
2022-11-21T12:02:11.625Z,30.23
2022-11-21T12:08:38.794Z,26.40
2022-11-21T12:12:55.401Z,23.70
2022-11-21T12:18:19.611Z,27.27
2022-11-21T12:23:32.215Z,26.37
2022-11-21T12:28:53.071Z,27.63
2022-11-21T12:34:24.303Z,23.00
2022-11-21T12:40:18.267Z,28.75
2022-11-21T12:45:33.754Z,25.48
2022-11-21T12:51:33.983Z,23.97
2022-11-21T12:56:45.658Z,29.37
2022-11-21T13:02:00.295Z,23.77
2022-11-21T13:07:04.420Z,25.00
2022-11-21T13:12:15.035Z,24.57
2022-11-21T13:17:39.463Z,25.00
2022-11-21T13:22:41.921Z,24.73
2022-11-21T13:27:47.383Z,23.70
2022-11-21T13:32:52.216Z,23.13
2022-11-21T13:38:03.146Z,26.80
2022-11-21T13:43:31.228Z,22.93
2022-11-21T13:48:28.702Z,23.27
2022-11-21T13:53:58.850Z,25.87
2022-11-21T13:59:19.516Z,22.73
2022-11-21T14:04:38.754Z,26.60
2022-11-21T14:09:48.331Z,23.50
2022-11-21T14:15:15.246Z,26.80
2022-11-21T14:20:25.332Z,23.47
2022-11-21T14:25:35.290Z,23.73
2022-11-21T14:30:40.795Z,24.10
2022-11-21T14:35:49.123Z,22.07
2022-11-21T14:42:42.979Z,20.43
2022-11-21T14:47:26.668Z,21.87
2022-11-21T14:52:34.108Z,23.77
2022-11-21T14:57:41.844Z,28.17
2022-11-21T15:02:45.347Z,22.00
2022-11-21T15:07:48.770Z,24.83
2022-11-21T15:13:08.577Z,24.47
2022-11-21T15:18:27.949Z,29.50
2022-11-21T15:23:33.747Z,23.33
2022-11-21T15:28:36.363Z,23.57
2022-11-21T15:34:35.345Z,25.20
2022-11-21T15:39:48.357Z,25.83
2022-11-21T15:44:59.918Z,27.23
2022-11-21T15:50:02.619Z,26.20
2022-11-21T15:55:13.888Z,26.67
2022-11-21T16:00:22.124Z,25.37
2022-11-21T16:05:25.793Z,27.17
2022-11-21T16:10:28.692Z,26.30
2022-11-21T16:15:31.310Z,25.57
2022-11-21T16:20:34.113Z,28.87
2022-11-21T16:25:37.202Z,23.07
2022-11-21T16:30:40.260Z,29.03
2022-11-21T16:35:42.905Z,31.40
2022-11-21T16:40:53.813Z,30.10
2022-11-21T16:46:06.143Z,23.33
2022-11-21T16:51:22.629Z,32.70
2022-11-21T16:56:25.398Z,31.77
2022-11-21T17:01:30.855Z,26.80
2022-11-21T17:06:34.755Z,28.10
2022-11-21T17:11:37.619Z,26.20
2022-11-21T17:16:41.699Z,28.27
2022-11-21T17:21:44.509Z,26.00
2022-11-21T17:26:47.126Z,25.77
2022-11-21T17:31:50.831Z,21.10
2022-11-21T17:36:56.142Z,23.47
2022-11-21T17:42:00.037Z,21.47
2022-11-21T17:47:05.908Z,30.50
2022-11-21T17:52:11.396Z,30.57
2022-11-21T17:57:14.084Z,23.43
2022-11-21T18:02:18.376Z,24.33
2022-11-21T18:07:21.223Z,22.90
2022-11-21T18:12:24.113Z,24.33
2022-11-21T18:17:27.164Z,25.50
2022-11-21T18:22:31.960Z,29.90
2022-11-21T18:27:40.439Z,29.20
2022-11-21T18:32:43.404Z,27.20
2022-11-21T18:37:46.985Z,25.83
2022-11-21T18:42:49.808Z,26.17
2022-11-21T18:47:52.977Z,29.17
2022-11-21T18:52:58.840Z,28.77
2022-11-21T18:58:03.135Z,30.40
2022-11-21T19:03:16.716Z,32.60
2022-11-21T19:08:19.976Z,37.43
2022-11-21T19:13:22.560Z,32.60
2022-11-21T19:18:25.587Z,35.30
2022-11-21T19:23:28.804Z,36.87
2022-11-21T19:28:34.786Z,33.93
2022-11-21T19:33:38.026Z,35.73
2022-11-21T19:38:40.672Z,33.27
2022-11-21T19:43:45.542Z,31.37
2022-11-21T19:48:49.803Z,32.17
2022-11-21T19:53:52.342Z,35.77
2022-11-21T19:58:56.543Z,33.07
2022-11-21T20:04:01.024Z,29.80
2022-11-21T20:09:12.753Z,35.50
2022-11-21T20:19:26.899Z,30.40
2022-11-21T20:24:30.060Z,34.67
2022-11-21T20:29:32.795Z,36.77
2022-11-21T20:34:36.160Z,30.40
2022-11-21T20:39:38.858Z,32.53
2022-11-21T20:50:06.561Z,33.00
2022-11-21T20:55:10.060Z,29.73
2022-11-21T21:00:13.183Z,26.37
2022-11-21T21:05:17.206Z,27.67
2022-11-21T21:10:22.636Z,25.20
2022-11-21T21:15:25.165Z,27.40
2022-11-21T21:20:27.706Z,27.10
2022-11-21T21:25:30.320Z,23.27
2022-11-21T21:30:33.114Z,26.53
2022-11-21T21:35:37.056Z,27.07
2022-11-21T21:40:39.650Z,28.57
2022-11-21T21:45:42.311Z,25.07
2022-11-21T21:50:44.832Z,26.50
2022-11-21T21:55:47.609Z,29.20
2022-11-21T22:00:50.185Z,27.00
2022-11-21T22:05:52.700Z,27.27
2022-11-21T22:11:10.800Z,26.97
2022-11-21T22:16:14.662Z,26.13
2022-11-21T22:21:28.012Z,30.60
2022-11-21T22:26:31.525Z,28.73
2022-11-21T22:31:34.503Z,28.40
2022-11-21T22:36:37.049Z,31.63
2022-11-21T22:41:39.669Z,29.60
2022-11-21T22:46:42.366Z,27.43
2022-11-21T22:51:45.231Z,32.13
2022-11-21T22:56:47.832Z,30.90
2022-11-21T23:01:50.459Z,29.77
2022-11-21T23:06:53.124Z,28.07
2022-11-21T23:11:55.644Z,29.93
2022-11-21T23:16:58.202Z,29.20
2022-11-21T23:22:00.843Z,31.03
2022-11-21T23:27:04.257Z,33.50
2022-11-21T23:32:06.894Z,31.57
2022-11-21T23:37:09.434Z,33.73
2022-11-21T23:42:11.981Z,33.07
2022-11-21T23:47:14.699Z,32.23
2022-11-21T23:52:17.370Z,31.07
2022-11-21T23:57:19.936Z,28.37
